Paguate, New Mexico
Current Conditions -  °F | °C
As of 10:37 AM on Saturday 25 Oct 2014 (Local Time) from KGNT Reporting Station
Clear Clear  
Wind Chill: 57°   Ceiling: Unl
Heat Index: 57°   Visibility: 10mi
Dew Point: 27°   Wind: 3mph
Humidity: 31%   Direction: 340°NNW
Pressure: 30.4"   Gusts: NA
Location:  35.14°N, 107.38°W
Report Text: KGNT 251637Z AUTO 34003KT 10SM CLR 14/M03 A3040 RMK AO2
Loading
Personal Weather Stations






























Interactive Weather Map
Tropical Storm Tracking
New forecast layout! Learn more

10-Day Weather Forecast

Advertisements
Track Severe Weather on mobile